sensor_id;sensor_type;location;lat;lon;timestamp;temperature;humidity
43151;DHT22;28755;51.478;5.702;2023-12-22T00:01:54;6.50;99.90
43151;DHT22;28755;51.478;5.702;2023-12-22T00:04:19;6.60;99.90
43151;DHT22;28755;51.478;5.702;2023-12-22T00:06:45;6.50;99.90
43151;DHT22;28755;51.478;5.702;2023-12-22T00:09:13;6.60;99.90
43151;DHT22;28755;51.478;5.702;2023-12-22T00:11:39;6.60;99.90
43151;DHT22;28755;51.478;5.702;2023-12-22T00:14:04;6.70;99.90
43151;DHT22;28755;51.478;5.702;2023-12-22T00:16:30;6.60;99.90
43151;DHT22;28755;51.478;5.702;2023-12-22T00:18:56;6.70;99.90
43151;DHT22;28755;51.478;5.702;2023-12-22T00:21:22;6.70;99.90
43151;DHT22;28755;51.478;5.702;2023-12-22T00:23:48;6.70;99.90
43151;DHT22;28755;51.478;5.702;2023-12-22T00:26:14;6.80;99.90
43151;DHT22;28755;51.478;5.702;2023-12-22T00:28:40;6.70;99.90
43151;DHT22;28755;51.478;5.702;2023-12-22T00:31:07;6.70;99.90
43151;DHT22;28755;51.478;5.702;2023-12-22T00:33:32;6.70;99.90
43151;DHT22;28755;51.478;5.702;2023-12-22T00:35:58;6.70;99.90
43151;DHT22;28755;51.478;5.702;2023-12-22T00:38:24;6.80;99.90
43151;DHT22;28755;51.478;5.702;2023-12-22T00:40:49;6.90;99.90
43151;DHT22;28755;51.478;5.702;2023-12-22T00:43:15;6.80;99.90
43151;DHT22;28755;51.478;5.702;2023-12-22T00:45:40;6.80;99.90
43151;DHT22;28755;51.478;5.702;2023-12-22T00:48:06;6.70;99.90
43151;DHT22;28755;51.478;5.702;2023-12-22T00:50:32;6.70;99.90
43151;DHT22;28755;51.478;5.702;2023-12-22T00:52:57;6.80;99.90
43151;DHT22;28755;51.478;5.702;2023-12-22T00:55:23;6.60;99.90
43151;DHT22;28755;51.478;5.702;2023-12-22T00:57:48;6.60;99.90
43151;DHT22;28755;51.478;5.702;2023-12-22T01:00:14;6.60;99.90
43151;DHT22;28755;51.478;5.702;2023-12-22T01:02:40;6.60;99.90
43151;DHT22;28755;51.478;5.702;2023-12-22T01:05:06;6.60;99.90
43151;DHT22;28755;51.478;5.702;2023-12-22T01:07:31;6.50;99.90
43151;DHT22;28755;51.478;5.702;2023-12-22T01:09:57;6.50;99.90
43151;DHT22;28755;51.478;5.702;2023-12-22T01:12:29;6.50;99.90
43151;DHT22;28755;51.478;5.702;2023-12-22T01:14:56;6.60;99.90
43151;DHT22;28755;51.478;5.702;2023-12-22T01:17:21;6.40;99.90
43151;DHT22;28755;51.478;5.702;2023-12-22T01:19:47;6.40;99.90
43151;DHT22;28755;51.478;5.702;2023-12-22T01:22:13;6.30;99.90
43151;DHT22;28755;51.478;5.702;2023-12-22T01:24:39;6.30;99.90
43151;DHT22;28755;51.478;5.702;2023-12-22T01:27:05;6.30;99.90
43151;DHT22;28755;51.478;5.702;2023-12-22T01:29:30;6.20;99.90
43151;DHT22;28755;51.478;5.702;2023-12-22T01:31:56;6.30;99.90
43151;DHT22;28755;51.478;5.702;2023-12-22T01:34:21;6.50;99.90
43151;DHT22;28755;51.478;5.702;2023-12-22T01:36:47;6.70;99.90
43151;DHT22;28755;51.478;5.702;2023-12-22T01:39:13;6.80;99.90
43151;DHT22;28755;51.478;5.702;2023-12-22T01:41:38;6.90;99.90
43151;DHT22;28755;51.478;5.702;2023-12-22T01:44:04;6.90;99.90
43151;DHT22;28755;51.478;5.702;2023-12-22T01:46:30;6.90;99.90
43151;DHT22;28755;51.478;5.702;2023-12-22T01:48:56;7.00;99.90
43151;DHT22;28755;51.478;5.702;2023-12-22T01:51:21;6.80;99.90
43151;DHT22;28755;51.478;5.702;2023-12-22T01:53:47;6.90;99.90
43151;DHT22;28755;51.478;5.702;2023-12-22T01:56:13;6.80;99.90
43151;DHT22;28755;51.478;5.702;2023-12-22T01:58:40;6.70;99.90
43151;DHT22;28755;51.478;5.702;2023-12-22T02:01:06;6.70;99.90
43151;DHT22;28755;51.478;5.702;2023-12-22T02:03:32;6.60;99.90
43151;DHT22;28755;51.478;5.702;2023-12-22T02:05:58;6.60;99.90
43151;DHT22;28755;51.478;5.702;2023-12-22T02:08:24;6.80;99.90
43151;DHT22;28755;51.478;5.702;2023-12-22T02:10:51;6.70;99.90
43151;DHT22;28755;51.478;5.702;2023-12-22T02:13:17;6.70;99.90
43151;DHT22;28755;51.478;5.702;2023-12-22T02:15:43;6.70;99.90
43151;DHT22;28755;51.478;5.702;2023-12-22T02:18:17;6.90;99.90
43151;DHT22;28755;51.478;5.702;2023-12-22T02:20:45;7.10;99.90
43151;DHT22;28755;51.478;5.702;2023-12-22T02:23:11;7.20;99.90
43151;DHT22;28755;51.478;5.702;2023-12-22T02:25:36;7.20;99.90
43151;DHT22;28755;51.478;5.702;2023-12-22T02:28:07;7.30;99.90
43151;DHT22;28755;51.478;5.702;2023-12-22T02:30:47;7.40;99.90
43151;DHT22;28755;51.478;5.702;2023-12-22T02:33:16;7.50;99.90
43151;DHT22;28755;51.478;5.702;2023-12-22T02:35:42;7.50;99.90
43151;DHT22;28755;51.478;5.702;2023-12-22T02:38:09;7.50;99.90
43151;DHT22;28755;51.478;5.702;2023-12-22T02:40:36;7.50;99.90
43151;DHT22;28755;51.478;5.702;2023-12-22T02:43:02;7.50;99.90
43151;DHT22;28755;51.478;5.702;2023-12-22T02:45:28;7.50;99.90
43151;DHT22;28755;51.478;5.702;2023-12-22T02:47:55;7.60;99.90
43151;DHT22;28755;51.478;5.702;2023-12-22T02:50:21;7.60;99.90
43151;DHT22;28755;51.478;5.702;2023-12-22T02:52:46;7.60;99.90
43151;DHT22;28755;51.478;5.702;2023-12-22T02:55:12;7.90;99.90
43151;DHT22;28755;51.478;5.702;2023-12-22T02:57:38;8.00;99.90
43151;DHT22;28755;51.478;5.702;2023-12-22T03:00:04;7.90;99.90
43151;DHT22;28755;51.478;5.702;2023-12-22T03:02:29;7.90;99.90
43151;DHT22;28755;51.478;5.702;2023-12-22T03:04:55;7.90;99.90
43151;DHT22;28755;51.478;5.702;2023-12-22T03:07:21;8.10;99.90
43151;DHT22;28755;51.478;5.702;2023-12-22T03:09:46;7.90;99.90
43151;DHT22;28755;51.478;5.702;2023-12-22T03:12:12;7.80;99.90
43151;DHT22;28755;51.478;5.702;2023-12-22T03:14:38;7.80;99.90
43151;DHT22;28755;51.478;5.702;2023-12-22T03:17:05;7.70;99.90
43151;DHT22;28755;51.478;5.702;2023-12-22T03:19:31;7.60;99.90
43151;DHT22;28755;51.478;5.702;2023-12-22T03:21:58;7.50;99.90
43151;DHT22;28755;51.478;5.702;2023-12-22T03:24:24;7.50;99.90
43151;DHT22;28755;51.478;5.702;2023-12-22T03:26:51;7.40;99.90
43151;DHT22;28755;51.478;5.702;2023-12-22T03:29:17;7.40;99.90
43151;DHT22;28755;51.478;5.702;2023-12-22T03:31:43;7.40;99.90
43151;DHT22;28755;51.478;5.702;2023-12-22T03:34:09;7.40;99.90
43151;DHT22;28755;51.478;5.702;2023-12-22T03:36:35;7.30;99.90
43151;DHT22;28755;51.478;5.702;2023-12-22T03:39:01;7.30;99.90
43151;DHT22;28755;51.478;5.702;2023-12-22T03:41:28;7.30;99.90
43151;DHT22;28755;51.478;5.702;2023-12-22T03:43:55;7.40;99.90
43151;DHT22;28755;51.478;5.702;2023-12-22T03:46:20;7.40;99.90
43151;DHT22;28755;51.478;5.702;2023-12-22T03:48:46;7.40;99.90
43151;DHT22;28755;51.478;5.702;2023-12-22T03:51:12;7.50;99.90
43151;DHT22;28755;51.478;5.702;2023-12-22T03:53:38;7.50;99.90
43151;DHT22;28755;51.478;5.702;2023-12-22T03:56:04;7.60;99.90
43151;DHT22;28755;51.478;5.702;2023-12-22T03:58:30;7.50;99.90
43151;DHT22;28755;51.478;5.702;2023-12-22T04:00:56;7.60;99.90
43151;DHT22;28755;51.478;5.702;2023-12-22T04:03:22;7.60;99.90
43151;DHT22;28755;51.478;5.702;2023-12-22T04:05:47;7.60;99.90
43151;DHT22;28755;51.478;5.702;2023-12-22T04:08:13;7.70;99.90
43151;DHT22;28755;51.478;5.702;2023-12-22T04:10:38;7.70;99.90
43151;DHT22;28755;51.478;5.702;2023-12-22T04:13:04;7.90;99.90
43151;DHT22;28755;51.478;5.702;2023-12-22T04:15:29;7.80;99.90
43151;DHT22;28755;51.478;5.702;2023-12-22T04:17:55;7.90;99.90
43151;DHT22;28755;51.478;5.702;2023-12-22T04:20:21;7.90;99.90
43151;DHT22;28755;51.478;5.702;2023-12-22T04:22:46;8.00;99.90
43151;DHT22;28755;51.478;5.702;2023-12-22T04:25:12;8.00;99.90
43151;DHT22;28755;51.478;5.702;2023-12-22T04:27:38;8.00;99.90
43151;DHT22;28755;51.478;5.702;2023-12-22T04:30:03;8.10;99.90
43151;DHT22;28755;51.478;5.702;2023-12-22T04:32:29;8.20;99.90
43151;DHT22;28755;51.478;5.702;2023-12-22T04:34:55;8.30;99.90
43151;DHT22;28755;51.478;5.702;2023-12-22T04:37:21;8.20;99.90
43151;DHT22;28755;51.478;5.702;2023-12-22T04:39:46;8.40;99.90
43151;DHT22;28755;51.478;5.702;2023-12-22T04:42:12;8.40;99.90
43151;DHT22;28755;51.478;5.702;2023-12-22T04:44:37;8.40;99.90
43151;DHT22;28755;51.478;5.702;2023-12-22T04:47:03;8.50;99.90
43151;DHT22;28755;51.478;5.702;2023-12-22T04:49:29;8.40;99.90
43151;DHT22;28755;51.478;5.702;2023-12-22T04:51:54;8.40;99.90
43151;DHT22;28755;51.478;5.702;2023-12-22T04:54:20;8.40;99.90
43151;DHT22;28755;51.478;5.702;2023-12-22T04:56:45;8.40;99.90
43151;DHT22;28755;51.478;5.702;2023-12-22T04:59:11;8.50;99.90
43151;DHT22;28755;51.478;5.702;2023-12-22T05:01:37;8.50;99.90
43151;DHT22;28755;51.478;5.702;2023-12-22T05:04:02;8.50;99.90
43151;DHT22;28755;51.478;5.702;2023-12-22T05:06:28;8.50;99.90
43151;DHT22;28755;51.478;5.702;2023-12-22T05:08:56;8.50;99.90
43151;DHT22;28755;51.478;5.702;2023-12-22T05:11:22;8.60;99.90
43151;DHT22;28755;51.478;5.702;2023-12-22T05:13:48;8.60;99.90
43151;DHT22;28755;51.478;5.702;2023-12-22T05:16:13;8.60;99.90
43151;DHT22;28755;51.478;5.702;2023-12-22T05:18:39;8.70;99.90
43151;DHT22;28755;51.478;5.702;2023-12-22T05:21:05;8.70;99.90
43151;DHT22;28755;51.478;5.702;2023-12-22T05:23:30;8.80;99.90
43151;DHT22;28755;51.478;5.702;2023-12-22T05:25:56;8.80;99.90
43151;DHT22;28755;51.478;5.702;2023-12-22T05:28:22;8.80;99.90
43151;DHT22;28755;51.478;5.702;2023-12-22T05:30:47;8.80;99.90
43151;DHT22;28755;51.478;5.702;2023-12-22T05:33:13;8.80;99.90
43151;DHT22;28755;51.478;5.702;2023-12-22T05:35:38;8.90;99.90
43151;DHT22;28755;51.478;5.702;2023-12-22T05:38:04;8.90;99.90
43151;DHT22;28755;51.478;5.702;2023-12-22T05:40:31;8.80;99.90
43151;DHT22;28755;51.478;5.702;2023-12-22T05:42:57;8.70;99.90
43151;DHT22;28755;51.478;5.702;2023-12-22T05:45:22;8.80;99.90
43151;DHT22;28755;51.478;5.702;2023-12-22T05:47:50;8.60;99.90
43151;DHT22;28755;51.478;5.702;2023-12-22T05:50:16;8.40;99.90
43151;DHT22;28755;51.478;5.702;2023-12-22T05:52:42;8.20;99.90
43151;DHT22;28755;51.478;5.702;2023-12-22T05:55:09;8.20;99.90
43151;DHT22;28755;51.478;5.702;2023-12-22T05:57:34;8.00;99.90
43151;DHT22;28755;51.478;5.702;2023-12-22T06:00:00;8.00;99.90
43151;DHT22;28755;51.478;5.702;2023-12-22T06:02:26;8.10;99.90
43151;DHT22;28755;51.478;5.702;2023-12-22T06:04:51;8.30;99.90
43151;DHT22;28755;51.478;5.702;2023-12-22T06:07:17;8.30;99.90
43151;DHT22;28755;51.478;5.702;2023-12-22T06:09:44;8.40;99.90
43151;DHT22;28755;51.478;5.702;2023-12-22T06:12:10;8.50;99.90
43151;DHT22;28755;51.478;5.702;2023-12-22T06:14:36;8.70;99.90
43151;DHT22;28755;51.478;5.702;2023-12-22T06:17:01;8.70;99.90
43151;DHT22;28755;51.478;5.702;2023-12-22T06:19:27;8.70;99.90
43151;DHT22;28755;51.478;5.702;2023-12-22T06:21:56;8.70;99.90
43151;DHT22;28755;51.478;5.702;2023-12-22T06:24:23;8.60;99.90
43151;DHT22;28755;51.478;5.702;2023-12-22T06:26:48;8.60;99.90
43151;DHT22;28755;51.478;5.702;2023-12-22T06:29:14;8.40;99.90
43151;DHT22;28755;51.478;5.702;2023-12-22T06:31:39;8.30;99.90
43151;DHT22;28755;51.478;5.702;2023-12-22T06:34:05;8.20;99.90
43151;DHT22;28755;51.478;5.702;2023-12-22T06:36:31;8.20;99.90
43151;DHT22;28755;51.478;5.702;2023-12-22T06:38:57;8.10;99.90
43151;DHT22;28755;51.478;5.702;2023-12-22T06:41:32;8.00;99.90
43151;DHT22;28755;51.478;5.702;2023-12-22T06:43:58;8.00;99.90
43151;DHT22;28755;51.478;5.702;2023-12-22T06:46:28;8.10;99.90
43151;DHT22;28755;51.478;5.702;2023-12-22T06:48:57;8.20;99.90
43151;DHT22;28755;51.478;5.702;2023-12-22T06:51:24;8.10;99.90
43151;DHT22;28755;51.478;5.702;2023-12-22T06:53:50;8.20;99.90
43151;DHT22;28755;51.478;5.702;2023-12-22T06:56:23;8.40;99.90
43151;DHT22;28755;51.478;5.702;2023-12-22T06:58:50;8.40;99.90
43151;DHT22;28755;51.478;5.702;2023-12-22T07:01:32;8.50;99.90
43151;DHT22;28755;51.478;5.702;2023-12-22T07:03:59;8.60;99.90
43151;DHT22;28755;51.478;5.702;2023-12-22T07:06:30;8.60;99.90
43151;DHT22;28755;51.478;5.702;2023-12-22T07:11:34;8.70;99.90
43151;DHT22;28755;51.478;5.702;2023-12-22T07:14:00;8.70;99.90
43151;DHT22;28755;51.478;5.702;2023-12-22T07:16:25;8.70;99.90
43151;DHT22;28755;51.478;5.702;2023-12-22T07:18:51;8.70;99.90
43151;DHT22;28755;51.478;5.702;2023-12-22T07:21:17;8.70;99.90
43151;DHT22;28755;51.478;5.702;2023-12-22T07:23:46;8.90;99.90
43151;DHT22;28755;51.478;5.702;2023-12-22T07:26:11;8.90;99.90
43151;DHT22;28755;51.478;5.702;2023-12-22T07:28:37;8.80;99.90
43151;DHT22;28755;51.478;5.702;2023-12-22T07:31:03;9.10;99.90
43151;DHT22;28755;51.478;5.702;2023-12-22T07:33:28;9.10;99.90
43151;DHT22;28755;51.478;5.702;2023-12-22T07:35:54;9.10;99.90
43151;DHT22;28755;51.478;5.702;2023-12-22T07:38:20;9.10;99.90
43151;DHT22;28755;51.478;5.702;2023-12-22T07:40:45;9.10;99.90
43151;DHT22;28755;51.478;5.702;2023-12-22T07:43:11;9.30;99.90
43151;DHT22;28755;51.478;5.702;2023-12-22T07:45:37;9.20;99.90
43151;DHT22;28755;51.478;5.702;2023-12-22T07:48:03;9.20;99.90
43151;DHT22;28755;51.478;5.702;2023-12-22T07:50:29;9.20;99.90
43151;DHT22;28755;51.478;5.702;2023-12-22T07:52:54;9.30;99.90
43151;DHT22;28755;51.478;5.702;2023-12-22T07:55:20;9.40;99.90
43151;DHT22;28755;51.478;5.702;2023-12-22T07:57:45;9.30;99.90
43151;DHT22;28755;51.478;5.702;2023-12-22T08:00:12;9.40;99.90
43151;DHT22;28755;51.478;5.702;2023-12-22T08:02:37;9.40;99.90
43151;DHT22;28755;51.478;5.702;2023-12-22T08:05:04;9.40;99.90
43151;DHT22;28755;51.478;5.702;2023-12-22T08:07:29;9.50;99.90
43151;DHT22;28755;51.478;5.702;2023-12-22T08:09:56;9.50;99.90
43151;DHT22;28755;51.478;5.702;2023-12-22T08:12:21;9.50;99.90
43151;DHT22;28755;51.478;5.702;2023-12-22T08:14:47;9.40;99.90
43151;DHT22;28755;51.478;5.702;2023-12-22T08:17:13;9.50;99.90
43151;DHT22;28755;51.478;5.702;2023-12-22T08:19:39;9.50;99.90
43151;DHT22;28755;51.478;5.702;2023-12-22T08:22:10;9.50;99.90
43151;DHT22;28755;51.478;5.702;2023-12-22T08:24:38;9.50;99.90
43151;DHT22;28755;51.478;5.702;2023-12-22T08:27:05;9.50;99.90
43151;DHT22;28755;51.478;5.702;2023-12-22T08:29:32;9.50;99.90
43151;DHT22;28755;51.478;5.702;2023-12-22T08:31:57;9.60;99.90
43151;DHT22;28755;51.478;5.702;2023-12-22T08:34:23;9.60;99.90
43151;DHT22;28755;51.478;5.702;2023-12-22T08:36:49;9.60;99.90
43151;DHT22;28755;51.478;5.702;2023-12-22T08:39:15;9.70;99.90
43151;DHT22;28755;51.478;5.702;2023-12-22T08:41:41;9.70;99.90
43151;DHT22;28755;51.478;5.702;2023-12-22T08:44:06;9.70;99.90
43151;DHT22;28755;51.478;5.702;2023-12-22T08:46:33;9.60;99.90
43151;DHT22;28755;51.478;5.702;2023-12-22T08:48:59;9.70;99.90
43151;DHT22;28755;51.478;5.702;2023-12-22T08:51:28;9.80;99.90
43151;DHT22;28755;51.478;5.702;2023-12-22T08:53:54;9.70;99.90
43151;DHT22;28755;51.478;5.702;2023-12-22T08:56:24;9.80;99.90
43151;DHT22;28755;51.478;5.702;2023-12-22T08:58:51;9.80;99.90
43151;DHT22;28755;51.478;5.702;2023-12-22T09:01:18;9.80;99.90
43151;DHT22;28755;51.478;5.702;2023-12-22T09:03:44;9.80;99.90
43151;DHT22;28755;51.478;5.702;2023-12-22T09:06:17;9.90;99.90
43151;DHT22;28755;51.478;5.702;2023-12-22T09:08:43;9.80;99.90
43151;DHT22;28755;51.478;5.702;2023-12-22T09:11:13;9.80;99.90
43151;DHT22;28755;51.478;5.702;2023-12-22T09:13:40;9.80;99.90
43151;DHT22;28755;51.478;5.702;2023-12-22T09:16:07;9.80;99.90
43151;DHT22;28755;51.478;5.702;2023-12-22T09:18:33;9.80;99.90
43151;DHT22;28755;51.478;5.702;2023-12-22T09:20:59;9.80;99.90
43151;DHT22;28755;51.478;5.702;2023-12-22T09:23:25;9.90;99.90
43151;DHT22;28755;51.478;5.702;2023-12-22T09:25:50;9.90;99.90
43151;DHT22;28755;51.478;5.702;2023-12-22T09:28:16;9.90;99.90
43151;DHT22;28755;51.478;5.702;2023-12-22T09:30:42;9.90;99.90
43151;DHT22;28755;51.478;5.702;2023-12-22T09:33:09;10.00;99.90
43151;DHT22;28755;51.478;5.702;2023-12-22T09:35:35;9.90;99.90
43151;DHT22;28755;51.478;5.702;2023-12-22T09:38:03;9.90;99.90
43151;DHT22;28755;51.478;5.702;2023-12-22T09:40:29;9.90;99.90
43151;DHT22;28755;51.478;5.702;2023-12-22T09:42:57;9.90;99.90
43151;DHT22;28755;51.478;5.702;2023-12-22T09:45:24;10.00;99.90
43151;DHT22;28755;51.478;5.702;2023-12-22T09:47:51;10.00;99.90
43151;DHT22;28755;51.478;5.702;2023-12-22T09:50:19;10.00;99.90
43151;DHT22;28755;51.478;5.702;2023-12-22T09:52:46;10.00;99.90
43151;DHT22;28755;51.478;5.702;2023-12-22T09:55:15;10.10;99.90
43151;DHT22;28755;51.478;5.702;2023-12-22T09:57:42;10.20;99.90
43151;DHT22;28755;51.478;5.702;2023-12-22T10:00:09;10.30;99.90
43151;DHT22;28755;51.478;5.702;2023-12-22T10:02:36;10.30;99.90
43151;DHT22;28755;51.478;5.702;2023-12-22T10:05:03;10.30;99.90
43151;DHT22;28755;51.478;5.702;2023-12-22T10:07:30;10.40;99.90
43151;DHT22;28755;51.478;5.702;2023-12-22T10:09:56;10.40;99.90
43151;DHT22;28755;51.478;5.702;2023-12-22T10:12:24;10.50;99.90
43151;DHT22;28755;51.478;5.702;2023-12-22T10:14:51;10.60;99.90
43151;DHT22;28755;51.478;5.702;2023-12-22T10:17:18;10.40;99.90
43151;DHT22;28755;51.478;5.702;2023-12-22T10:19:44;10.50;99.90
43151;DHT22;28755;51.478;5.702;2023-12-22T10:22:10;10.60;99.90
43151;DHT22;28755;51.478;5.702;2023-12-22T10:24:46;10.60;99.90
43151;DHT22;28755;51.478;5.702;2023-12-22T10:27:14;10.60;99.90
43151;DHT22;28755;51.478;5.702;2023-12-22T10:29:40;10.70;99.90
43151;DHT22;28755;51.478;5.702;2023-12-22T10:32:07;10.70;99.90
43151;DHT22;28755;51.478;5.702;2023-12-22T10:34:34;10.70;99.90
43151;DHT22;28755;51.478;5.702;2023-12-22T10:37:00;10.70;99.90
43151;DHT22;28755;51.478;5.702;2023-12-22T10:39:30;10.80;99.90
43151;DHT22;28755;51.478;5.702;2023-12-22T10:41:57;10.90;99.90
43151;DHT22;28755;51.478;5.702;2023-12-22T10:44:27;10.80;99.90
43151;DHT22;28755;51.478;5.702;2023-12-22T10:46:53;10.90;99.90
43151;DHT22;28755;51.478;5.702;2023-12-22T10:49:22;10.80;99.90
43151;DHT22;28755;51.478;5.702;2023-12-22T10:51:49;10.80;99.90
43151;DHT22;28755;51.478;5.702;2023-12-22T10:54:16;10.80;99.90
43151;DHT22;28755;51.478;5.702;2023-12-22T10:56:41;10.80;99.90
43151;DHT22;28755;51.478;5.702;2023-12-22T10:59:08;10.90;99.90
43151;DHT22;28755;51.478;5.702;2023-12-22T11:01:36;10.90;99.90
43151;DHT22;28755;51.478;5.702;2023-12-22T11:04:07;10.90;99.90
43151;DHT22;28755;51.478;5.702;2023-12-22T11:06:35;10.80;99.90
43151;DHT22;28755;51.478;5.702;2023-12-22T11:09:07;10.90;99.90
43151;DHT22;28755;51.478;5.702;2023-12-22T11:11:39;10.90;99.90
43151;DHT22;28755;51.478;5.702;2023-12-22T11:14:06;11.00;99.90
43151;DHT22;28755;51.478;5.702;2023-12-22T11:16:35;11.00;99.90
43151;DHT22;28755;51.478;5.702;2023-12-22T11:19:02;10.90;99.90
43151;DHT22;28755;51.478;5.702;2023-12-22T11:21:28;11.00;99.90
43151;DHT22;28755;51.478;5.702;2023-12-22T11:23:54;11.00;99.90
43151;DHT22;28755;51.478;5.702;2023-12-22T11:26:22;10.90;99.90
43151;DHT22;28755;51.478;5.702;2023-12-22T11:28:49;11.00;99.90
43151;DHT22;28755;51.478;5.702;2023-12-22T11:31:17;11.00;99.90
43151;DHT22;28755;51.478;5.702;2023-12-22T11:33:49;11.00;99.90
43151;DHT22;28755;51.478;5.702;2023-12-22T11:36:16;11.00;99.90
43151;DHT22;28755;51.478;5.702;2023-12-22T11:38:44;11.10;99.90
43151;DHT22;28755;51.478;5.702;2023-12-22T11:41:21;11.10;99.90
43151;DHT22;28755;51.478;5.702;2023-12-22T11:43:47;11.00;99.90
43151;DHT22;28755;51.478;5.702;2023-12-22T11:46:16;11.10;99.90
43151;DHT22;28755;51.478;5.702;2023-12-22T11:48:49;11.20;99.90
43151;DHT22;28755;51.478;5.702;2023-12-22T11:51:16;11.20;99.90
43151;DHT22;28755;51.478;5.702;2023-12-22T11:53:42;11.20;99.90
43151;DHT22;28755;51.478;5.702;2023-12-22T11:56:08;11.20;99.90
43151;DHT22;28755;51.478;5.702;2023-12-22T11:58:42;11.10;99.90
43151;DHT22;28755;51.478;5.702;2023-12-22T12:01:12;11.10;99.90
43151;DHT22;28755;51.478;5.702;2023-12-22T12:03:42;11.10;99.90
43151;DHT22;28755;51.478;5.702;2023-12-22T12:06:31;11.00;99.90
43151;DHT22;28755;51.478;5.702;2023-12-22T12:08:59;10.90;99.90
43151;DHT22;28755;51.478;5.702;2023-12-22T12:14:22;10.90;99.90
43151;DHT22;28755;51.478;5.702;2023-12-22T12:16:48;11.10;99.90
43151;DHT22;28755;51.478;5.702;2023-12-22T12:19:14;11.10;99.90
43151;DHT22;28755;51.478;5.702;2023-12-22T12:21:40;11.10;99.90
43151;DHT22;28755;51.478;5.702;2023-12-22T12:24:06;11.10;99.90
43151;DHT22;28755;51.478;5.702;2023-12-22T12:26:35;10.90;99.90
43151;DHT22;28755;51.478;5.702;2023-12-22T12:29:01;10.80;99.90
43151;DHT22;28755;51.478;5.702;2023-12-22T12:31:37;10.80;99.90
43151;DHT22;28755;51.478;5.702;2023-12-22T12:34:07;10.80;99.90
43151;DHT22;28755;51.478;5.702;2023-12-22T12:36:33;10.70;99.90
43151;DHT22;28755;51.478;5.702;2023-12-22T12:39:07;10.90;99.90
43151;DHT22;28755;51.478;5.702;2023-12-22T12:41:40;10.80;99.90
43151;DHT22;28755;51.478;5.702;2023-12-22T12:44:07;11.00;99.90
43151;DHT22;28755;51.478;5.702;2023-12-22T12:46:35;11.10;99.90
43151;DHT22;28755;51.478;5.702;2023-12-22T12:49:11;11.00;99.90
43151;DHT22;28755;51.478;5.702;2023-12-22T12:51:38;11.00;99.90
43151;DHT22;28755;51.478;5.702;2023-12-22T12:54:07;11.20;99.90
43151;DHT22;28755;51.478;5.702;2023-12-22T12:56:40;11.20;99.90
43151;DHT22;28755;51.478;5.702;2023-12-22T12:59:11;11.10;99.90
43151;DHT22;28755;51.478;5.702;2023-12-22T13:01:41;11.20;99.90
43151;DHT22;28755;51.478;5.702;2023-12-22T13:04:07;11.20;99.90
43151;DHT22;28755;51.478;5.702;2023-12-22T13:06:33;11.20;99.90
43151;DHT22;28755;51.478;5.702;2023-12-22T13:08:59;11.30;99.90
43151;DHT22;28755;51.478;5.702;2023-12-22T13:11:26;11.30;99.90
43151;DHT22;28755;51.478;5.702;2023-12-22T13:13:53;11.20;99.90
43151;DHT22;28755;51.478;5.702;2023-12-22T13:16:23;11.30;99.90
43151;DHT22;28755;51.478;5.702;2023-12-22T13:18:52;11.30;99.90
43151;DHT22;28755;51.478;5.702;2023-12-22T13:21:18;11.20;99.90
43151;DHT22;28755;51.478;5.702;2023-12-22T13:23:44;11.30;99.90
43151;DHT22;28755;51.478;5.702;2023-12-22T13:26:21;11.30;99.90
43151;DHT22;28755;51.478;5.702;2023-12-22T13:28:47;11.30;99.90
43151;DHT22;28755;51.478;5.702;2023-12-22T13:31:13;11.30;99.90
43151;DHT22;28755;51.478;5.702;2023-12-22T13:33:42;11.40;99.90
43151;DHT22;28755;51.478;5.702;2023-12-22T13:36:08;11.10;99.90
43151;DHT22;28755;51.478;5.702;2023-12-22T13:38:34;11.30;99.90
43151;DHT22;28755;51.478;5.702;2023-12-22T13:41:01;11.10;99.90
43151;DHT22;28755;51.478;5.702;2023-12-22T13:43:29;11.30;99.90
43151;DHT22;28755;51.478;5.702;2023-12-22T13:45:54;11.30;99.90
43151;DHT22;28755;51.478;5.702;2023-12-22T13:48:20;11.30;99.90
43151;DHT22;28755;51.478;5.702;2023-12-22T13:50:58;11.30;99.90
43151;DHT22;28755;51.478;5.702;2023-12-22T13:53:24;11.30;99.90
43151;DHT22;28755;51.478;5.702;2023-12-22T13:55:57;11.20;99.90
43151;DHT22;28755;51.478;5.702;2023-12-22T13:58:23;11.10;99.90
43151;DHT22;28755;51.478;5.702;2023-12-22T14:00:50;11.00;99.90
43151;DHT22;28755;51.478;5.702;2023-12-22T14:03:16;10.90;99.90
43151;DHT22;28755;51.478;5.702;2023-12-22T14:05:45;10.80;99.90
43151;DHT22;28755;51.478;5.702;2023-12-22T14:08:11;10.90;99.90
43151;DHT22;28755;51.478;5.702;2023-12-22T14:10:36;10.80;99.90
43151;DHT22;28755;51.478;5.702;2023-12-22T14:13:02;10.80;99.90
43151;DHT22;28755;51.478;5.702;2023-12-22T14:15:28;10.70;99.90
43151;DHT22;28755;51.478;5.702;2023-12-22T14:17:56;10.60;99.90
43151;DHT22;28755;51.478;5.702;2023-12-22T14:20:22;10.60;99.90
43151;DHT22;28755;51.478;5.702;2023-12-22T14:22:47;10.50;99.90
43151;DHT22;28755;51.478;5.702;2023-12-22T14:25:13;10.40;99.90
43151;DHT22;28755;51.478;5.702;2023-12-22T14:27:39;10.50;99.90
43151;DHT22;28755;51.478;5.702;2023-12-22T14:30:05;10.60;99.90
43151;DHT22;28755;51.478;5.702;2023-12-22T14:32:30;10.50;99.90
43151;DHT22;28755;51.478;5.702;2023-12-22T14:34:56;10.50;99.90
43151;DHT22;28755;51.478;5.702;2023-12-22T14:37:25;10.60;99.90
43151;DHT22;28755;51.478;5.702;2023-12-22T14:39:51;10.60;99.90
43151;DHT22;28755;51.478;5.702;2023-12-22T14:42:17;10.60;99.90
43151;DHT22;28755;51.478;5.702;2023-12-22T14:44:43;10.50;99.90
43151;DHT22;28755;51.478;5.702;2023-12-22T14:47:09;10.50;99.90
43151;DHT22;28755;51.478;5.702;2023-12-22T14:49:34;10.60;99.90
43151;DHT22;28755;51.478;5.702;2023-12-22T14:52:00;10.50;99.90
43151;DHT22;28755;51.478;5.702;2023-12-22T14:54:26;10.50;99.90
43151;DHT22;28755;51.478;5.702;2023-12-22T14:56:52;10.60;99.90
43151;DHT22;28755;51.478;5.702;2023-12-22T14:59:17;10.70;99.90
43151;DHT22;28755;51.478;5.702;2023-12-22T15:01:44;10.70;99.90
43151;DHT22;28755;51.478;5.702;2023-12-22T15:04:10;10.70;99.90
43151;DHT22;28755;51.478;5.702;2023-12-22T15:06:39;10.70;99.90
43151;DHT22;28755;51.478;5.702;2023-12-22T15:09:06;10.80;99.90
43151;DHT22;28755;51.478;5.702;2023-12-22T15:11:31;10.90;99.90
43151;DHT22;28755;51.478;5.702;2023-12-22T15:13:57;10.90;99.90
43151;DHT22;28755;51.478;5.702;2023-12-22T15:16:22;10.90;99.90
43151;DHT22;28755;51.478;5.702;2023-12-22T15:18:48;10.80;99.90
43151;DHT22;28755;51.478;5.702;2023-12-22T15:21:20;10.70;99.90
43151;DHT22;28755;51.478;5.702;2023-12-22T15:23:49;10.90;99.90
43151;DHT22;28755;51.478;5.702;2023-12-22T15:26:25;11.00;99.90
43151;DHT22;28755;51.478;5.702;2023-12-22T15:28:51;10.90;99.90
43151;DHT22;28755;51.478;5.702;2023-12-22T15:31:17;11.00;99.90
43151;DHT22;28755;51.478;5.702;2023-12-22T15:33:43;11.00;99.90
43151;DHT22;28755;51.478;5.702;2023-12-22T15:36:09;11.00;99.90
43151;DHT22;28755;51.478;5.702;2023-12-22T15:38:34;10.90;99.90
43151;DHT22;28755;51.478;5.702;2023-12-22T15:41:01;10.90;99.90
43151;DHT22;28755;51.478;5.702;2023-12-22T15:43:27;11.00;99.90